sensor_id;sensor_type;location;lat;lon;timestamp;P1;durP1;ratioP1;P2;durP2;ratioP2
5702;SDS011;2876;51.738;10.050;2023-04-23T00:01:16;4.93;;;2.67;;
5702;SDS011;2876;51.738;10.050;2023-04-23T00:07:19;5.10;;;3.00;;
5702;SDS011;2876;51.738;10.050;2023-04-23T00:13:22;3.73;;;2.50;;
5702;SDS011;2876;51.738;10.050;2023-04-23T00:19:24;7.40;;;2.93;;
5702;SDS011;2876;51.738;10.050;2023-04-23T00:25:26;6.17;;;2.77;;
5702;SDS011;2876;51.738;10.050;2023-04-23T00:31:28;4.60;;;3.23;;
5702;SDS011;2876;51.738;10.050;2023-04-23T00:37:30;5.40;;;2.87;;
5702;SDS011;2876;51.738;10.050;2023-04-23T00:43:32;4.93;;;2.97;;
5702;SDS011;2876;51.738;10.050;2023-04-23T00:49:35;5.03;;;3.10;;
5702;SDS011;2876;51.738;10.050;2023-04-23T00:55:37;5.93;;;3.03;;
5702;SDS011;2876;51.738;10.050;2023-04-23T01:01:40;6.10;;;3.13;;
5702;SDS011;2876;51.738;10.050;2023-04-23T01:07:45;6.87;;;3.50;;
5702;SDS011;2876;51.738;10.050;2023-04-23T01:13:47;5.07;;;3.00;;
5702;SDS011;2876;51.738;10.050;2023-04-23T01:19:50;4.43;;;3.50;;
5702;SDS011;2876;51.738;10.050;2023-04-23T01:25:52;4.00;;;3.30;;
5702;SDS011;2876;51.738;10.050;2023-04-23T01:31:55;5.17;;;4.17;;
5702;SDS011;2876;51.738;10.050;2023-04-23T01:37:58;4.73;;;3.60;;
5702;SDS011;2876;51.738;10.050;2023-04-23T01:44:02;6.60;;;3.70;;
5702;SDS011;2876;51.738;10.050;2023-04-23T01:50:05;4.33;;;3.93;;
5702;SDS011;2876;51.738;10.050;2023-04-23T01:56:08;6.60;;;4.40;;
5702;SDS011;2876;51.738;10.050;2023-04-23T02:02:11;5.47;;;4.50;;
5702;SDS011;2876;51.738;10.050;2023-04-23T02:08:14;5.83;;;4.43;;
5702;SDS011;2876;51.738;10.050;2023-04-23T02:14:16;5.57;;;4.37;;
5702;SDS011;2876;51.738;10.050;2023-04-23T02:20:18;5.27;;;4.07;;
5702;SDS011;2876;51.738;10.050;2023-04-23T02:26:21;4.67;;;4.27;;
5702;SDS011;2876;51.738;10.050;2023-04-23T02:32:25;6.43;;;4.93;;
5702;SDS011;2876;51.738;10.050;2023-04-23T02:38:28;5.20;;;4.70;;
5702;SDS011;2876;51.738;10.050;2023-04-23T02:44:30;7.10;;;4.70;;
5702;SDS011;2876;51.738;10.050;2023-04-23T02:50:32;14.10;;;5.30;;
5702;SDS011;2876;51.738;10.050;2023-04-23T02:56:34;7.70;;;5.50;;
5702;SDS011;2876;51.738;10.050;2023-04-23T03:02:35;8.80;;;5.97;;
5702;SDS011;2876;51.738;10.050;2023-04-23T03:08:38;5.77;;;5.13;;
5702;SDS011;2876;51.738;10.050;2023-04-23T03:14:40;7.07;;;6.20;;
5702;SDS011;2876;51.738;10.050;2023-04-23T03:20:43;8.37;;;7.03;;
5702;SDS011;2876;51.738;10.050;2023-04-23T03:26:45;6.97;;;6.23;;
5702;SDS011;2876;51.738;10.050;2023-04-23T03:32:47;10.03;;;8.30;;
5702;SDS011;2876;51.738;10.050;2023-04-23T03:38:50;8.47;;;7.57;;
5702;SDS011;2876;51.738;10.050;2023-04-23T03:44:52;8.97;;;7.83;;
5702;SDS011;2876;51.738;10.050;2023-04-23T03:50:54;9.50;;;8.10;;
5702;SDS011;2876;51.738;10.050;2023-04-23T03:56:56;7.70;;;6.80;;
5702;SDS011;2876;51.738;10.050;2023-04-23T04:02:58;10.00;;;8.40;;
5702;SDS011;2876;51.738;10.050;2023-04-23T04:09:02;12.47;;;10.60;;
5702;SDS011;2876;51.738;10.050;2023-04-23T04:15:04;16.83;;;12.27;;
5702;SDS011;2876;51.738;10.050;2023-04-23T04:21:07;20.23;;;12.53;;
5702;SDS011;2876;51.738;10.050;2023-04-23T04:27:09;13.00;;;10.50;;
5702;SDS011;2876;51.738;10.050;2023-04-23T04:33:11;15.70;;;13.37;;
5702;SDS011;2876;51.738;10.050;2023-04-23T04:39:15;19.23;;;14.47;;
5702;SDS011;2876;51.738;10.050;2023-04-23T04:45:18;20.43;;;16.23;;
5702;SDS011;2876;51.738;10.050;2023-04-23T04:51:20;19.83;;;15.27;;
5702;SDS011;2876;51.738;10.050;2023-04-23T04:57:22;20.60;;;15.43;;
5702;SDS011;2876;51.738;10.050;2023-04-23T05:03:24;22.27;;;16.80;;
5702;SDS011;2876;51.738;10.050;2023-04-23T05:09:27;21.13;;;17.13;;
5702;SDS011;2876;51.738;10.050;2023-04-23T05:15:29;22.50;;;17.03;;
5702;SDS011;2876;51.738;10.050;2023-04-23T05:21:31;19.80;;;16.27;;
5702;SDS011;2876;51.738;10.050;2023-04-23T05:27:34;22.13;;;17.13;;
5702;SDS011;2876;51.738;10.050;2023-04-23T05:33:37;19.30;;;15.07;;
5702;SDS011;2876;51.738;10.050;2023-04-23T05:39:50;27.53;;;15.80;;
5702;SDS011;2876;51.738;10.050;2023-04-23T05:45:52;18.40;;;14.70;;
5702;SDS011;2876;51.738;10.050;2023-04-23T05:51:54;18.37;;;14.70;;
5702;SDS011;2876;51.738;10.050;2023-04-23T05:57:56;18.47;;;15.37;;
5702;SDS011;2876;51.738;10.050;2023-04-23T06:03:58;23.53;;;14.90;;
5702;SDS011;2876;51.738;10.050;2023-04-23T06:10:01;18.33;;;14.80;;
5702;SDS011;2876;51.738;10.050;2023-04-23T06:16:06;25.40;;;18.40;;
5702;SDS011;2876;51.738;10.050;2023-04-23T06:22:09;23.33;;;18.20;;
5702;SDS011;2876;51.738;10.050;2023-04-23T06:28:11;27.57;;;20.43;;
5702;SDS011;2876;51.738;10.050;2023-04-23T06:34:12;27.37;;;20.40;;
5702;SDS011;2876;51.738;10.050;2023-04-23T06:40:14;35.07;;;22.23;;
5702;SDS011;2876;51.738;10.050;2023-04-23T06:46:16;29.63;;;20.50;;
5702;SDS011;2876;51.738;10.050;2023-04-23T06:52:18;30.13;;;21.67;;
5702;SDS011;2876;51.738;10.050;2023-04-23T06:58:20;28.53;;;23.10;;
5702;SDS011;2876;51.738;10.050;2023-04-23T07:04:27;30.27;;;23.63;;
5702;SDS011;2876;51.738;10.050;2023-04-23T07:10:29;29.20;;;23.00;;
5702;SDS011;2876;51.738;10.050;2023-04-23T07:16:31;33.87;;;25.43;;
5702;SDS011;2876;51.738;10.050;2023-04-23T07:22:34;31.00;;;23.17;;
5702;SDS011;2876;51.738;10.050;2023-04-23T07:28:36;33.17;;;23.33;;
5702;SDS011;2876;51.738;10.050;2023-04-23T07:34:38;33.37;;;22.97;;
5702;SDS011;2876;51.738;10.050;2023-04-23T07:40:40;30.40;;;21.97;;
5702;SDS011;2876;51.738;10.050;2023-04-23T07:46:42;27.10;;;20.87;;
5702;SDS011;2876;51.738;10.050;2023-04-23T07:52:44;27.50;;;20.87;;
5702;SDS011;2876;51.738;10.050;2023-04-23T07:58:47;25.43;;;19.20;;
5702;SDS011;2876;51.738;10.050;2023-04-23T08:04:49;20.10;;;16.30;;
5702;SDS011;2876;51.738;10.050;2023-04-23T08:10:51;18.63;;;14.93;;
5702;SDS011;2876;51.738;10.050;2023-04-23T08:16:53;17.97;;;13.43;;
5702;SDS011;2876;51.738;10.050;2023-04-23T08:22:55;13.20;;;11.10;;
5702;SDS011;2876;51.738;10.050;2023-04-23T08:28:57;9.73;;;8.73;;
5702;SDS011;2876;51.738;10.050;2023-04-23T08:35:01;7.80;;;6.10;;
5702;SDS011;2876;51.738;10.050;2023-04-23T08:41:04;7.53;;;6.53;;
5702;SDS011;2876;51.738;10.050;2023-04-23T08:47:10;7.73;;;6.17;;
5702;SDS011;2876;51.738;10.050;2023-04-23T08:53:17;6.13;;;5.53;;
5702;SDS011;2876;51.738;10.050;2023-04-23T08:59:22;5.77;;;4.23;;
5702;SDS011;2876;51.738;10.050;2023-04-23T09:05:31;4.63;;;4.20;;
5702;SDS011;2876;51.738;10.050;2023-04-23T09:11:35;2.77;;;2.57;;
5702;SDS011;2876;51.738;10.050;2023-04-23T09:17:39;2.60;;;2.40;;
5702;SDS011;2876;51.738;10.050;2023-04-23T09:23:44;3.13;;;2.20;;
5702;SDS011;2876;51.738;10.050;2023-04-23T09:29:46;3.90;;;2.40;;
5702;SDS011;2876;51.738;10.050;2023-04-23T09:35:53;2.20;;;2.00;;
5702;SDS011;2876;51.738;10.050;2023-04-23T09:41:55;2.80;;;2.10;;
5702;SDS011;2876;51.738;10.050;2023-04-23T09:48:05;2.57;;;2.17;;
5702;SDS011;2876;51.738;10.050;2023-04-23T09:54:14;3.50;;;2.50;;
5702;SDS011;2876;51.738;10.050;2023-04-23T10:00:23;3.47;;;2.53;;
5702;SDS011;2876;51.738;10.050;2023-04-23T10:06:29;4.17;;;2.90;;
5702;SDS011;2876;51.738;10.050;2023-04-23T10:12:50;3.00;;;2.80;;
5702;SDS011;2876;51.738;10.050;2023-04-23T10:18:56;3.70;;;2.97;;
5702;SDS011;2876;51.738;10.050;2023-04-23T10:25:03;2.50;;;2.30;;
5702;SDS011;2876;51.738;10.050;2023-04-23T10:31:09;3.30;;;2.70;;
5702;SDS011;2876;51.738;10.050;2023-04-23T10:37:12;3.47;;;3.10;;
5702;SDS011;2876;51.738;10.050;2023-04-23T10:43:16;8.63;;;3.00;;
5702;SDS011;2876;51.738;10.050;2023-04-23T10:49:20;2.33;;;2.10;;
5702;SDS011;2876;51.738;10.050;2023-04-23T10:55:25;3.40;;;2.83;;
5702;SDS011;2876;51.738;10.050;2023-04-23T11:01:29;2.73;;;2.53;;
5702;SDS011;2876;51.738;10.050;2023-04-23T11:07:32;2.50;;;2.30;;
5702;SDS011;2876;51.738;10.050;2023-04-23T11:13:34;4.40;;;2.87;;
5702;SDS011;2876;51.738;10.050;2023-04-23T11:19:36;2.87;;;2.67;;
5702;SDS011;2876;51.738;10.050;2023-04-23T11:25:40;3.53;;;2.80;;
5702;SDS011;2876;51.738;10.050;2023-04-23T11:31:43;3.30;;;2.30;;
5702;SDS011;2876;51.738;10.050;2023-04-23T11:38:06;2.53;;;2.30;;
5702;SDS011;2876;51.738;10.050;2023-04-23T11:44:10;3.30;;;2.50;;
5702;SDS011;2876;51.738;10.050;2023-04-23T11:50:16;2.80;;;2.50;;
5702;SDS011;2876;51.738;10.050;2023-04-23T11:56:19;2.90;;;2.70;;
5702;SDS011;2876;51.738;10.050;2023-04-23T12:02:24;2.37;;;2.17;;
5702;SDS011;2876;51.738;10.050;2023-04-23T12:08:30;2.30;;;1.90;;
5702;SDS011;2876;51.738;10.050;2023-04-23T12:14:37;2.87;;;2.60;;
5702;SDS011;2876;51.738;10.050;2023-04-23T12:20:39;4.57;;;2.47;;
5702;SDS011;2876;51.738;10.050;2023-04-23T12:26:41;2.83;;;2.20;;
5702;SDS011;2876;51.738;10.050;2023-04-23T12:32:44;1.77;;;1.67;;
5702;SDS011;2876;51.738;10.050;2023-04-23T12:38:46;2.03;;;1.83;;
5702;SDS011;2876;51.738;10.050;2023-04-23T12:44:48;2.80;;;2.07;;
5702;SDS011;2876;51.738;10.050;2023-04-23T12:50:52;3.00;;;2.47;;
5702;SDS011;2876;51.738;10.050;2023-04-23T12:56:54;2.67;;;2.00;;
5702;SDS011;2876;51.738;10.050;2023-04-23T13:02:56;1.63;;;1.50;;
5702;SDS011;2876;51.738;10.050;2023-04-23T13:08:58;1.70;;;1.60;;
5702;SDS011;2876;51.738;10.050;2023-04-23T13:15:03;1.97;;;1.87;;
5702;SDS011;2876;51.738;10.050;2023-04-23T13:21:06;1.87;;;1.77;;
5702;SDS011;2876;51.738;10.050;2023-04-23T13:27:09;1.80;;;1.70;;
5702;SDS011;2876;51.738;10.050;2023-04-23T13:33:12;2.13;;;1.90;;
5702;SDS011;2876;51.738;10.050;2023-04-23T13:39:14;1.97;;;1.77;;
5702;SDS011;2876;51.738;10.050;2023-04-23T13:45:18;2.30;;;2.10;;
5702;SDS011;2876;51.738;10.050;2023-04-23T13:51:20;1.50;;;1.40;;
5702;SDS011;2876;51.738;10.050;2023-04-23T13:57:35;2.83;;;1.97;;
5702;SDS011;2876;51.738;10.050;2023-04-23T14:03:38;2.20;;;1.77;;
5702;SDS011;2876;51.738;10.050;2023-04-23T14:09:40;2.40;;;1.80;;
5702;SDS011;2876;51.738;10.050;2023-04-23T14:15:44;2.93;;;1.93;;
5702;SDS011;2876;51.738;10.050;2023-04-23T14:21:46;1.60;;;1.50;;
5702;SDS011;2876;51.738;10.050;2023-04-23T14:27:49;1.97;;;1.70;;
5702;SDS011;2876;51.738;10.050;2023-04-23T14:33:51;3.53;;;2.10;;
5702;SDS011;2876;51.738;10.050;2023-04-23T14:39:56;2.00;;;1.90;;
5702;SDS011;2876;51.738;10.050;2023-04-23T14:45:58;2.43;;;1.90;;
5702;SDS011;2876;51.738;10.050;2023-04-23T14:52:00;2.00;;;1.57;;
5702;SDS011;2876;51.738;10.050;2023-04-23T14:58:03;2.27;;;2.07;;
5702;SDS011;2876;51.738;10.050;2023-04-23T15:04:05;1.87;;;1.77;;
5702;SDS011;2876;51.738;10.050;2023-04-23T15:10:07;2.73;;;2.30;;
5702;SDS011;2876;51.738;10.050;2023-04-23T15:16:17;4.90;;;1.90;;
5702;SDS011;2876;51.738;10.050;2023-04-23T15:22:48;5.30;;;2.10;;
5702;SDS011;2876;51.738;10.050;2023-04-23T15:28:50;2.00;;;1.80;;
5702;SDS011;2876;51.738;10.050;2023-04-23T15:34:52;2.00;;;1.70;;
5702;SDS011;2876;51.738;10.050;2023-04-23T15:40:54;1.93;;;1.10;;
5702;SDS011;2876;51.738;10.050;2023-04-23T15:46:57;1.50;;;1.27;;
5702;SDS011;2876;51.738;10.050;2023-04-23T15:53:01;1.90;;;1.50;;
5702;SDS011;2876;51.738;10.050;2023-04-23T15:59:04;3.07;;;1.40;;
5702;SDS011;2876;51.738;10.050;2023-04-23T16:05:06;1.40;;;1.30;;
5702;SDS011;2876;51.738;10.050;2023-04-23T16:11:08;1.73;;;1.30;;
5702;SDS011;2876;51.738;10.050;2023-04-23T16:17:10;2.33;;;1.90;;
5702;SDS011;2876;51.738;10.050;2023-04-23T16:23:12;3.20;;;1.60;;
5702;SDS011;2876;51.738;10.050;2023-04-23T16:29:14;6.00;;;1.97;;
5702;SDS011;2876;51.738;10.050;2023-04-23T16:35:22;1.50;;;1.40;;
5702;SDS011;2876;51.738;10.050;2023-04-23T16:41:24;2.20;;;2.00;;
5702;SDS011;2876;51.738;10.050;2023-04-23T16:47:26;2.23;;;1.70;;
5702;SDS011;2876;51.738;10.050;2023-04-23T16:53:28;2.70;;;1.80;;
5702;SDS011;2876;51.738;10.050;2023-04-23T16:59:30;2.60;;;1.60;;
5702;SDS011;2876;51.738;10.050;2023-04-23T17:05:32;2.03;;;1.53;;
5702;SDS011;2876;51.738;10.050;2023-04-23T17:11:35;3.40;;;1.87;;
5702;SDS011;2876;51.738;10.050;2023-04-23T17:17:37;1.93;;;1.53;;
5702;SDS011;2876;51.738;10.050;2023-04-23T17:23:39;2.97;;;1.87;;
5702;SDS011;2876;51.738;10.050;2023-04-23T17:29:40;2.13;;;1.97;;
5702;SDS011;2876;51.738;10.050;2023-04-23T17:35:42;2.03;;;1.73;;
5702;SDS011;2876;51.738;10.050;2023-04-23T17:41:45;1.93;;;1.60;;
5702;SDS011;2876;51.738;10.050;2023-04-23T17:47:47;4.00;;;2.30;;
5702;SDS011;2876;51.738;10.050;2023-04-23T17:53:48;2.33;;;1.93;;
5702;SDS011;2876;51.738;10.050;2023-04-23T17:59:52;3.47;;;2.10;;
5702;SDS011;2876;51.738;10.050;2023-04-23T18:05:54;2.60;;;2.07;;
5702;SDS011;2876;51.738;10.050;2023-04-23T18:11:56;3.00;;;2.30;;
5702;SDS011;2876;51.738;10.050;2023-04-23T18:17:59;4.00;;;2.43;;
5702;SDS011;2876;51.738;10.050;2023-04-23T18:24:01;3.70;;;2.20;;
5702;SDS011;2876;51.738;10.050;2023-04-23T18:30:03;2.00;;;1.80;;
5702;SDS011;2876;51.738;10.050;2023-04-23T18:36:18;3.13;;;2.10;;
5702;SDS011;2876;51.738;10.050;2023-04-23T18:42:24;2.50;;;2.30;;
5702;SDS011;2876;51.738;10.050;2023-04-23T18:48:37;4.30;;;1.90;;
5702;SDS011;2876;51.738;10.050;2023-04-23T18:54:45;2.83;;;2.47;;
5702;SDS011;2876;51.738;10.050;2023-04-23T19:00:47;3.80;;;2.30;;
5702;SDS011;2876;51.738;10.050;2023-04-23T19:06:49;2.50;;;2.30;;
5702;SDS011;2876;51.738;10.050;2023-04-23T19:12:51;2.40;;;2.20;;
5702;SDS011;2876;51.738;10.050;2023-04-23T19:18:52;2.63;;;1.97;;
5702;SDS011;2876;51.738;10.050;2023-04-23T19:24:56;2.93;;;2.53;;
5702;SDS011;2876;51.738;10.050;2023-04-23T19:30:57;2.40;;;2.27;;
5702;SDS011;2876;51.738;10.050;2023-04-23T19:36:59;2.30;;;2.10;;
5702;SDS011;2876;51.738;10.050;2023-04-23T19:43:01;3.80;;;2.20;;
5702;SDS011;2876;51.738;10.050;2023-04-23T19:49:03;3.30;;;2.60;;
5702;SDS011;2876;51.738;10.050;2023-04-23T19:55:06;2.77;;;2.57;;
5702;SDS011;2876;51.738;10.050;2023-04-23T20:01:08;3.27;;;2.80;;
5702;SDS011;2876;51.738;10.050;2023-04-23T20:07:11;3.40;;;2.40;;
5702;SDS011;2876;51.738;10.050;2023-04-23T20:13:13;3.27;;;2.60;;
5702;SDS011;2876;51.738;10.050;2023-04-23T20:19:15;3.87;;;2.93;;
5702;SDS011;2876;51.738;10.050;2023-04-23T20:25:18;7.47;;;3.00;;
5702;SDS011;2876;51.738;10.050;2023-04-23T20:31:25;4.00;;;3.00;;
5702;SDS011;2876;51.738;10.050;2023-04-23T20:37:27;3.10;;;2.00;;
5702;SDS011;2876;51.738;10.050;2023-04-23T20:43:31;3.30;;;1.90;;
5702;SDS011;2876;51.738;10.050;2023-04-23T20:49:35;5.23;;;2.13;;
5702;SDS011;2876;51.738;10.050;2023-04-23T20:55:38;1.63;;;1.53;;
5702;SDS011;2876;51.738;10.050;2023-04-23T21:01:41;2.10;;;1.93;;
5702;SDS011;2876;51.738;10.050;2023-04-23T21:07:43;5.80;;;1.73;;
5702;SDS011;2876;51.738;10.050;2023-04-23T21:13:45;4.73;;;1.43;;
5702;SDS011;2876;51.738;10.050;2023-04-23T21:19:47;1.50;;;1.40;;
5702;SDS011;2876;51.738;10.050;2023-04-23T21:25:49;1.47;;;1.37;;
5702;SDS011;2876;51.738;10.050;2023-04-23T21:31:51;1.50;;;1.13;;
5702;SDS011;2876;51.738;10.050;2023-04-23T21:37:53;1.93;;;1.60;;
5702;SDS011;2876;51.738;10.050;2023-04-23T21:43:55;1.50;;;1.30;;
5702;SDS011;2876;51.738;10.050;2023-04-23T21:49:57;1.60;;;1.43;;
5702;SDS011;2876;51.738;10.050;2023-04-23T21:56:01;3.80;;;1.60;;
5702;SDS011;2876;51.738;10.050;2023-04-23T22:02:03;2.13;;;1.20;;
5702;SDS011;2876;51.738;10.050;2023-04-23T22:08:05;2.73;;;1.47;;
5702;SDS011;2876;51.738;10.050;2023-04-23T22:14:07;1.17;;;1.07;;
5702;SDS011;2876;51.738;10.050;2023-04-23T22:20:10;1.57;;;1.20;;
5702;SDS011;2876;51.738;10.050;2023-04-23T22:26:13;1.80;;;1.30;;
5702;SDS011;2876;51.738;10.050;2023-04-23T22:32:15;3.30;;;1.60;;
5702;SDS011;2876;51.738;10.050;2023-04-23T22:38:17;2.73;;;1.40;;
5702;SDS011;2876;51.738;10.050;2023-04-23T22:44:19;2.17;;;1.17;;
5702;SDS011;2876;51.738;10.050;2023-04-23T22:50:21;1.37;;;1.27;;
5702;SDS011;2876;51.738;10.050;2023-04-23T22:56:23;1.43;;;1.20;;
5702;SDS011;2876;51.738;10.050;2023-04-23T23:02:25;1.30;;;1.20;;
5702;SDS011;2876;51.738;10.050;2023-04-23T23:08:27;1.73;;;1.30;;
5702;SDS011;2876;51.738;10.050;2023-04-23T23:14:29;1.50;;;1.40;;
5702;SDS011;2876;51.738;10.050;2023-04-23T23:20:32;1.37;;;1.27;;
5702;SDS011;2876;51.738;10.050;2023-04-23T23:26:34;1.93;;;1.60;;
5702;SDS011;2876;51.738;10.050;2023-04-23T23:32:35;2.17;;;1.23;;
5702;SDS011;2876;51.738;10.050;2023-04-23T23:38:38;2.10;;;1.90;;
5702;SDS011;2876;51.738;10.050;2023-04-23T23:44:39;1.40;;;1.30;;
5702;SDS011;2876;51.738;10.050;2023-04-23T23:50:41;1.40;;;1.30;;
5702;SDS011;2876;51.738;10.050;2023-04-23T23:56:43;1.30;;;1.20;;
